Time;durP1;ratioP1;P1;durP2;ratioP2;P2;SDS_P1;SDS_P2;PMS_P1;PMS_P2;Temp;Humidity;BMP_temperature;BMP_pressure;BME280_temperature;BME280_humidity;BME280_pressure;Samples;Min_cycle;Max_cycle;Signal;HPM_P1;HPM_P2
2023/09/26 00:00:09;;;;;;;3.00;1.70;;;;;;;;;;5066923;28;20704;-66
2023/09/26 00:02:36;;;;;;;4.60;2.33;;;;;;;;;;5070345;28;20445;-67
2023/09/26 00:05:05;;;;;;;3.17;1.73;;;;;;;;;;5071223;28;20469;-67
2023/09/26 00:07:32;;;;;;;2.43;1.87;;;;;;;;;;5065671;28;20445;-66
2023/09/26 00:10:00;;;;;;;2.60;1.90;;;;;;;;;;5062670;28;20508;-67
2023/09/26 00:12:28;;;;;;;2.70;1.50;;;;;;;;;;5068258;28;20537;-66
2023/09/26 00:14:55;;;;;;;2.30;1.50;;;;;;;;;;5062246;28;20488;-67
2023/09/26 00:17:23;;;;;;;5.00;1.70;;;;;;;;;;5058158;28;20456;-67
2023/09/26 00:19:50;;;;;;;4.33;2.43;;;;;;;;;;5064029;28;20461;-66
2023/09/26 00:22:20;;;;;;;2.60;1.47;;;;;;;;;;5069448;28;20473;-66
2023/09/26 00:24:47;;;;;;;3.00;1.63;;;;;;;;;;5060827;28;20835;-66
2023/09/26 00:27:15;;;;;;;3.43;1.83;;;;;;;;;;5070737;28;20827;-66
2023/09/26 00:29:42;;;;;;;4.27;1.87;;;;;;;;;;5062859;28;20976;-66
2023/09/26 00:32:09;;;;;;;7.13;2.33;;;;;;;;;;5065881;28;20461;-66
2023/09/26 00:34:38;;;;;;;3.20;1.83;;;;;;;;;;5062478;28;20494;-66
2023/09/26 00:37:05;;;;;;;2.70;1.80;;;;;;;;;;5072571;28;20545;-65
2023/09/26 00:39:33;;;;;;;3.67;1.83;;;;;;;;;;5071447;28;20970;-66
2023/09/26 00:42:00;;;;;;;3.90;2.10;;;;;;;;;;5065582;28;20449;-66
2023/09/26 00:44:27;;;;;;;3.87;1.93;;;;;;;;;;5065217;28;20469;-65
2023/09/26 00:46:55;;;;;;;2.57;1.50;;;;;;;;;;5064615;28;20454;-66
2023/09/26 00:49:22;;;;;;;3.13;1.93;;;;;;;;;;5067109;28;20457;-66
2023/09/26 00:51:50;;;;;;;2.70;1.60;;;;;;;;;;5062061;28;20448;-66
2023/09/26 00:54:18;;;;;;;3.80;1.80;;;;;;;;;;5067891;28;20485;-66
2023/09/26 00:56:45;;;;;;;2.50;1.20;;;;;;;;;;5069573;28;20451;-66
2023/09/26 00:59:13;;;;;;;2.57;1.73;;;;;;;;;;5068781;28;20896;-66
2023/09/26 01:01:40;;;;;;;3.27;1.97;;;;;;;;;;5065960;28;20463;-66
2023/09/26 01:04:08;;;;;;;4.80;2.73;;;;;;;;;;5067922;28;20583;-67
2023/09/26 01:06:36;;;;;;;3.23;1.60;;;;;;;;;;5068735;28;21077;-66
2023/09/26 01:09:08;;;;;;;2.53;1.23;;;;;;;;;;5071629;28;20468;-66
2023/09/26 01:11:35;;;;;;;4.50;1.97;;;;;;;;;;5066252;28;20888;-66
2023/09/26 01:14:02;;;;;;;3.47;2.20;;;;;;;;;;5064403;28;20465;-66
2023/09/26 01:16:29;;;;;;;2.73;1.50;;;;;;;;;;5063513;28;20473;-66
2023/09/26 01:18:56;;;;;;;2.40;1.43;;;;;;;;;;5069213;28;20465;-66
2023/09/26 01:21:23;;;;;;;3.70;1.83;;;;;;;;;;5064243;28;20515;-66
2023/09/26 01:23:55;;;;;;;4.03;2.20;;;;;;;;;;5070124;28;20457;-66
2023/09/26 01:26:22;;;;;;;4.93;1.90;;;;;;;;;;5063104;28;20476;-66
2023/09/26 01:28:49;;;;;;;3.77;2.00;;;;;;;;;;5068322;28;20461;-66
2023/09/26 01:31:17;;;;;;;4.40;2.10;;;;;;;;;;5062127;28;20859;-66
2023/09/26 01:33:44;;;;;;;3.57;1.93;;;;;;;;;;5066413;28;20458;-66
2023/09/26 01:36:11;;;;;;;3.23;1.70;;;;;;;;;;5062185;28;20485;-66
2023/09/26 01:38:38;;;;;;;2.40;1.30;;;;;;;;;;5070188;28;20457;-65
2023/09/26 01:41:06;;;;;;;3.20;1.73;;;;;;;;;;5071026;28;20923;-66
2023/09/26 01:43:34;;;;;;;3.50;1.90;;;;;;;;;;5067967;28;20457;-67
2023/09/26 01:46:01;;;;;;;3.90;1.90;;;;;;;;;;5066979;28;20477;-66
2023/09/26 01:48:28;;;;;;;2.63;1.80;;;;;;;;;;5067419;28;20536;-65
2023/09/26 01:50:55;;;;;;;3.47;1.67;;;;;;;;;;5064373;28;20464;-66
2023/09/26 01:53:22;;;;;;;4.53;2.00;;;;;;;;;;5071020;28;20457;-66
2023/09/26 01:55:49;;;;;;;3.23;1.97;;;;;;;;;;5067618;28;20986;-66
2023/09/26 01:58:18;;;;;;;3.57;2.00;;;;;;;;;;5064941;28;20962;-66
2023/09/26 02:00:45;;;;;;;6.37;1.67;;;;;;;;;;5057160;28;20454;-66
2023/09/26 02:03:12;;;;;;;3.43;2.20;;;;;;;;;;5070244;28;20930;-66
2023/09/26 02:05:39;;;;;;;3.80;1.90;;;;;;;;;;5068423;28;20469;-66
2023/09/26 02:08:06;;;;;;;2.40;1.50;;;;;;;;;;5062486;28;20441;-66
2023/09/26 02:10:33;;;;;;;3.73;2.03;;;;;;;;;;5068563;28;20453;-66
2023/09/26 02:13:00;;;;;;;2.97;2.00;;;;;;;;;;5070008;28;20453;-66
2023/09/26 02:15:28;;;;;;;2.80;1.60;;;;;;;;;;5068267;28;20579;-66
2023/09/26 02:17:56;;;;;;;3.40;1.70;;;;;;;;;;5074792;28;20880;-66
2023/09/26 02:20:23;;;;;;;3.10;1.67;;;;;;;;;;5077459;28;20448;-66
2023/09/26 02:22:51;;;;;;;2.60;1.83;;;;;;;;;;5076716;28;20456;-66
2023/09/26 02:25:19;;;;;;;3.80;1.70;;;;;;;;;;5068682;28;20476;-66
2023/09/26 02:27:46;;;;;;;4.00;2.00;;;;;;;;;;5072600;28;20521;-66
2023/09/26 02:30:18;;;;;;;4.70;2.50;;;;;;;;;;5073671;28;20475;-66
2023/09/26 02:32:46;;;;;;;4.20;2.10;;;;;;;;;;5069727;28;20441;-66
2023/09/26 02:35:14;;;;;;;2.50;1.60;;;;;;;;;;5068450;28;20481;-67
2023/09/26 02:37:41;;;;;;;4.07;1.93;;;;;;;;;;5077883;28;20452;-66
2023/09/26 02:40:10;;;;;;;3.67;1.83;;;;;;;;;;5075968;28;20465;-66
2023/09/26 02:42:37;;;;;;;3.60;1.83;;;;;;;;;;5069780;28;20803;-67
2023/09/26 02:45:05;;;;;;;2.77;2.17;;;;;;;;;;5065866;28;20999;-67
2023/09/26 02:47:32;;;;;;;2.83;1.57;;;;;;;;;;5098873;22;20581;-65
2023/09/26 02:50:01;;;;;;;3.00;1.60;;;;;;;;;;5035188;28;21221;-65
2023/09/26 02:52:28;;;;;;;2.57;1.40;;;;;;;;;;5029361;28;20454;-65
2023/09/26 02:54:55;;;;;;;3.27;1.93;;;;;;;;;;5028981;28;20475;-66
2023/09/26 02:57:22;;;;;;;2.70;1.80;;;;;;;;;;5031929;28;20458;-66
2023/09/26 02:59:49;;;;;;;2.37;1.50;;;;;;;;;;5045119;28;20481;-66
2023/09/26 03:02:16;;;;;;;3.20;1.90;;;;;;;;;;5038350;28;20455;-66
2023/09/26 03:04:43;;;;;;;5.97;2.00;;;;;;;;;;5037189;28;20834;-66
2023/09/26 03:07:12;;;;;;;3.07;1.80;;;;;;;;;;5030697;28;20459;-66
2023/09/26 03:09:39;;;;;;;3.43;1.73;;;;;;;;;;5038017;28;20447;-66
2023/09/26 03:12:07;;;;;;;3.10;1.60;;;;;;;;;;5035975;28;20467;-65
2023/09/26 03:14:34;;;;;;;2.53;1.60;;;;;;;;;;5026244;28;20566;-65
2023/09/26 03:17:01;;;;;;;2.80;1.77;;;;;;;;;;5033202;28;20498;-65
2023/09/26 03:19:28;;;;;;;5.20;2.80;;;;;;;;;;5043535;28;20457;-66
2023/09/26 03:21:55;;;;;;;3.60;1.47;;;;;;;;;;5035933;28;20996;-65
2023/09/26 03:24:23;;;;;;;4.10;2.17;;;;;;;;;;5032907;28;20469;-66
2023/09/26 03:26:50;;;;;;;2.50;1.60;;;;;;;;;;5029422;28;20462;-65
2023/09/26 03:29:17;;;;;;;2.90;1.50;;;;;;;;;;5031920;28;20469;-66
2023/09/26 03:31:45;;;;;;;2.87;1.50;;;;;;;;;;5029781;28;20459;-67
2023/09/26 03:34:12;;;;;;;2.77;1.73;;;;;;;;;;5031717;28;20470;-65
2023/09/26 03:36:39;;;;;;;3.40;1.53;;;;;;;;;;5033562;28;20474;-65
2023/09/26 03:39:07;;;;;;;4.47;1.97;;;;;;;;;;5025387;28;20956;-65
2023/09/26 03:41:36;;;;;;;3.13;1.93;;;;;;;;;;5025911;28;20541;-66
2023/09/26 03:44:03;;;;;;;2.80;1.70;;;;;;;;;;5014504;28;20451;-65
2023/09/26 03:46:30;;;;;;;3.20;1.80;;;;;;;;;;5029254;28;20534;-66
2023/09/26 03:48:57;;;;;;;4.00;2.00;;;;;;;;;;5037358;28;20454;-66
2023/09/26 03:51:24;;;;;;;3.50;2.20;;;;;;;;;;5030497;28;20957;-66
2023/09/26 03:53:51;;;;;;;4.33;2.40;;;;;;;;;;5033981;28;20471;-66
2023/09/26 03:56:18;;;;;;;3.80;2.00;;;;;;;;;;5022167;28;20491;-66
2023/09/26 03:58:46;;;;;;;3.67;2.23;;;;;;;;;;5029386;28;20451;-66
2023/09/26 04:01:14;;;;;;;2.80;1.77;;;;;;;;;;5031449;28;20945;-66
2023/09/26 04:03:42;;;;;;;3.40;2.23;;;;;;;;;;5036155;28;20439;-66
2023/09/26 04:06:09;;;;;;;2.93;1.47;;;;;;;;;;5032269;28;20837;-66
2023/09/26 04:08:36;;;;;;;3.40;2.07;;;;;;;;;;5032474;28;20542;-66
2023/09/26 04:11:04;;;;;;;3.37;2.17;;;;;;;;;;5023888;28;20945;-66
2023/09/26 04:13:31;;;;;;;3.80;1.97;;;;;;;;;;5032272;28;20459;-66
2023/09/26 04:15:59;;;;;;;5.13;2.77;;;;;;;;;;5025991;28;20491;-66
2023/09/26 04:18:26;;;;;;;6.50;2.27;;;;;;;;;;5026108;28;20455;-66
2023/09/26 04:20:54;;;;;;;5.60;2.30;;;;;;;;;;5033684;28;20580;-66
2023/09/26 04:23:21;;;;;;;4.27;2.10;;;;;;;;;;5032398;28;20504;-66
2023/09/26 04:25:48;;;;;;;4.67;2.20;;;;;;;;;;5024841;28;20471;-66
2023/09/26 04:28:15;;;;;;;3.37;2.07;;;;;;;;;;5027094;28;20551;-67
2023/09/26 04:30:42;;;;;;;4.10;2.20;;;;;;;;;;5032976;28;20451;-67
2023/09/26 04:33:10;;;;;;;3.37;2.03;;;;;;;;;;5031655;28;20462;-67
2023/09/26 04:35:38;;;;;;;4.73;2.40;;;;;;;;;;5022879;28;20538;-67
2023/09/26 04:38:05;;;;;;;3.57;2.27;;;;;;;;;;5025543;28;20463;-65
2023/09/26 04:40:32;;;;;;;3.27;2.13;;;;;;;;;;5029392;28;20576;-66
2023/09/26 04:43:01;;;;;;;4.77;2.07;;;;;;;;;;5027609;28;20446;-65
2023/09/26 04:45:30;;;;;;;3.60;1.80;;;;;;;;;;5035260;28;20863;-65
2023/09/26 04:47:58;;;;;;;5.40;2.13;;;;;;;;;;5032476;28;20526;-65
2023/09/26 04:50:27;;;;;;;5.13;2.53;;;;;;;;;;5037437;28;20440;-65
2023/09/26 04:52:54;;;;;;;4.80;2.80;;;;;;;;;;5018854;28;20446;-65
2023/09/26 04:55:21;;;;;;;5.87;2.40;;;;;;;;;;5023751;28;20463;-65
2023/09/26 04:57:48;;;;;;;4.37;2.70;;;;;;;;;;5028311;28;20527;-65
2023/09/26 05:00:18;;;;;;;3.83;2.30;;;;;;;;;;5034423;28;20463;-66
2023/09/26 05:02:45;;;;;;;4.27;2.57;;;;;;;;;;5031598;28;20459;-65
2023/09/26 05:05:12;;;;;;;4.53;2.73;;;;;;;;;;5031995;28;20500;-65
2023/09/26 05:07:43;;;;;;;3.43;2.27;;;;;;;;;;5018681;28;20444;-66
2023/09/26 05:10:11;;;;;;;5.50;2.87;;;;;;;;;;5040479;28;20489;-66
2023/09/26 05:12:40;;;;;;;5.53;3.10;;;;;;;;;;5032024;28;20482;-66
2023/09/26 05:15:09;;;;;;;3.60;2.57;;;;;;;;;;5026728;28;20471;-66
2023/09/26 05:17:36;;;;;;;5.80;3.03;;;;;;;;;;5024960;28;20578;-65
2023/09/26 05:20:08;;;;;;;9.70;2.83;;;;;;;;;;5038327;28;20467;-65
2023/09/26 05:22:35;;;;;;;6.83;2.67;;;;;;;;;;5029305;28;20957;-66
2023/09/26 05:25:04;;;;;;;4.10;2.30;;;;;;;;;;5028839;28;20483;-66
2023/09/26 05:27:31;;;;;;;3.83;2.70;;;;;;;;;;5026855;28;20459;-66
2023/09/26 05:29:58;;;;;;;4.40;2.87;;;;;;;;;;5033021;28;20933;-67
2023/09/26 05:32:25;;;;;;;5.30;2.70;;;;;;;;;;5030755;28;20509;-66
2023/09/26 05:34:52;;;;;;;5.23;2.50;;;;;;;;;;5030074;28;20536;-67
2023/09/26 05:37:19;;;;;;;5.33;2.70;;;;;;;;;;5029740;28;20475;-65
2023/09/26 05:39:46;;;;;;;3.87;2.33;;;;;;;;;;5032001;28;20473;-64
2023/09/26 05:42:14;;;;;;;6.10;3.47;;;;;;;;;;5032619;28;20458;-65
2023/09/26 05:44:42;;;;;;;6.30;3.50;;;;;;;;;;5037537;28;20487;-64
2023/09/26 05:47:09;;;;;;;4.23;2.17;;;;;;;;;;5029009;28;20950;-65
2023/09/26 05:49:36;;;;;;;5.90;3.00;;;;;;;;;;5031348;28;20459;-64
2023/09/26 05:52:03;;;;;;;4.30;2.60;;;;;;;;;;5029585;28;20470;-64
2023/09/26 05:54:31;;;;;;;4.77;3.33;;;;;;;;;;5030597;28;20489;-63
2023/09/26 05:56:58;;;;;;;4.90;2.70;;;;;;;;;;5029815;28;20545;-65
2023/09/26 05:59:26;;;;;;;5.50;3.70;;;;;;;;;;5027060;28;20546;-65
2023/09/26 06:01:53;;;;;;;5.07;3.17;;;;;;;;;;5030354;28;20463;-65
2023/09/26 06:04:21;;;;;;;6.73;3.33;;;;;;;;;;5034692;28;20481;-64
2023/09/26 06:06:48;;;;;;;4.10;2.80;;;;;;;;;;5030820;28;20489;-65
2023/09/26 06:09:15;;;;;;;5.80;2.77;;;;;;;;;;5033494;28;20481;-64
2023/09/26 06:11:42;;;;;;;3.73;2.40;;;;;;;;;;5044970;28;20467;-64
2023/09/26 06:14:09;;;;;;;6.50;3.70;;;;;;;;;;5021900;28;20448;-64
2023/09/26 06:16:37;;;;;;;3.20;1.77;;;;;;;;;;5028083;28;20479;-64
2023/09/26 06:19:04;;;;;;;4.93;3.10;;;;;;;;;;5027997;28;20452;-64
2023/09/26 06:21:31;;;;;;;4.50;2.83;;;;;;;;;;5026210;28;20489;-63
2023/09/26 06:23:58;;;;;;;4.97;2.43;;;;;;;;;;5026636;28;20462;-64
2023/09/26 06:26:25;;;;;;;4.83;3.00;;;;;;;;;;5027424;28;20666;-64
2023/09/26 06:28:53;;;;;;;4.70;3.07;;;;;;;;;;5018643;28;20821;-64
2023/09/26 06:31:20;;;;;;;4.40;2.37;;;;;;;;;;5036455;28;20449;-64
2023/09/26 06:33:48;;;;;;;4.83;3.20;;;;;;;;;;5034285;28;20838;-65
2023/09/26 06:36:18;;;;;;;4.40;2.87;;;;;;;;;;5029337;28;20483;-65
2023/09/26 06:38:45;;;;;;;5.90;2.83;;;;;;;;;;5030731;28;20451;-65
2023/09/26 06:41:12;;;;;;;4.63;2.67;;;;;;;;;;5028916;28;20489;-64
2023/09/26 06:43:39;;;;;;;4.97;2.27;;;;;;;;;;5031954;28;20475;-65
2023/09/26 06:46:08;;;;;;;6.73;3.20;;;;;;;;;;5029456;28;20842;-65
2023/09/26 06:48:37;;;;;;;4.17;2.50;;;;;;;;;;5030142;28;20463;-64
2023/09/26 06:51:06;;;;;;;4.77;3.17;;;;;;;;;;5023275;28;20463;-65
2023/09/26 06:53:33;;;;;;;4.27;2.77;;;;;;;;;;5035115;28;20447;-64
2023/09/26 06:56:01;;;;;;;10.70;3.63;;;;;;;;;;5017666;28;20470;-64
2023/09/26 06:58:28;;;;;;;5.00;3.00;;;;;;;;;;5020289;28;20480;-63
2023/09/26 07:00:55;;;;;;;6.13;2.63;;;;;;;;;;5040586;28;20442;-64
2023/09/26 07:03:22;;;;;;;5.73;2.70;;;;;;;;;;5038037;28;20442;-65
2023/09/26 07:05:49;;;;;;;5.90;2.93;;;;;;;;;;5032137;28;20487;-63
2023/09/26 07:08:17;;;;;;;10.93;2.97;;;;;;;;;;5020731;28;20829;-63
2023/09/26 07:10:45;;;;;;;8.00;3.00;;;;;;;;;;5047431;28;20926;-64
2023/09/26 07:13:13;;;;;;;4.27;2.63;;;;;;;;;;5036544;28;20534;-64
2023/09/26 07:15:41;;;;;;;4.60;2.47;;;;;;;;;;5031066;28;20510;-65
2023/09/26 07:18:11;;;;;;;7.00;2.80;;;;;;;;;;5024868;28;20486;-64
2023/09/26 07:20:39;;;;;;;5.43;2.93;;;;;;;;;;5028061;28;20491;-65
2023/09/26 07:23:06;;;;;;;5.00;3.13;;;;;;;;;;5032491;28;20442;-65
2023/09/26 07:25:34;;;;;;;6.77;3.07;;;;;;;;;;5028734;28;20977;-66
2023/09/26 07:28:01;;;;;;;3.63;3.07;;;;;;;;;;5032455;28;20466;-65
2023/09/26 07:30:28;;;;;;;7.77;4.30;;;;;;;;;;5039794;28;20443;-65
2023/09/26 07:32:55;;;;;;;3.73;2.40;;;;;;;;;;5033344;28;20454;-64
2023/09/26 07:35:23;;;;;;;5.23;3.10;;;;;;;;;;5031820;28;20502;-65
2023/09/26 07:37:50;;;;;;;3.83;2.93;;;;;;;;;;5021562;28;20487;-65
2023/09/26 07:40:17;;;;;;;3.80;2.30;;;;;;;;;;5029021;28;20442;-64
2023/09/26 07:42:45;;;;;;;6.57;3.13;;;;;;;;;;5032182;28;20477;-66
2023/09/26 07:45:14;;;;;;;4.40;3.10;;;;;;;;;;5029940;28;20969;-64
2023/09/26 07:47:41;;;;;;;5.23;3.63;;;;;;;;;;5038417;28;20455;-65
2023/09/26 07:50:09;;;;;;;4.90;2.77;;;;;;;;;;5024371;28;20443;-64
2023/09/26 07:52:36;;;;;;;4.53;3.10;;;;;;;;;;5028580;28;20926;-65
2023/09/26 07:55:03;;;;;;;5.23;3.13;;;;;;;;;;5013676;28;20472;-65
2023/09/26 07:57:30;;;;;;;6.40;3.77;;;;;;;;;;5026621;28;20479;-65
2023/09/26 07:59:58;;;;;;;6.00;3.50;;;;;;;;;;5029565;28;20860;-65
2023/09/26 08:02:25;;;;;;;5.60;2.70;;;;;;;;;;5036961;28;20501;-65
2023/09/26 08:04:52;;;;;;;4.67;3.37;;;;;;;;;;5021457;28;20470;-65
2023/09/26 08:07:19;;;;;;;5.87;3.13;;;;;;;;;;5019562;28;20467;-65
2023/09/26 08:09:47;;;;;;;3.73;2.60;;;;;;;;;;5041705;28;20822;-65
2023/09/26 08:12:14;;;;;;;5.63;2.77;;;;;;;;;;5038541;28;20464;-65
2023/09/26 08:14:41;;;;;;;5.27;3.00;;;;;;;;;;5023210;28;20463;-64
2023/09/26 08:17:10;;;;;;;4.73;3.07;;;;;;;;;;5020038;28;20490;-64
2023/09/26 08:19:37;;;;;;;4.23;3.00;;;;;;;;;;5031982;28;20445;-64
2023/09/26 08:22:04;;;;;;;9.93;4.67;;;;;;;;;;5030458;28;20460;-64
2023/09/26 08:24:31;;;;;;;5.30;3.27;;;;;;;;;;5024073;28;20805;-63
2023/09/26 08:26:58;;;;;;;3.90;3.10;;;;;;;;;;5020155;28;20451;-64
2023/09/26 08:29:25;;;;;;;5.80;3.00;;;;;;;;;;5039477;28;20445;-65
2023/09/26 08:31:52;;;;;;;5.23;3.43;;;;;;;;;;5019331;28;20842;-65
2023/09/26 08:34:22;;;;;;;6.13;3.50;;;;;;;;;;5032162;28;20545;-65
2023/09/26 08:36:49;;;;;;;6.40;3.50;;;;;;;;;;5027616;28;20479;-65
2023/09/26 08:39:17;;;;;;;6.37;3.40;;;;;;;;;;5026718;28;20542;-64
2023/09/26 08:41:45;;;;;;;6.40;2.93;;;;;;;;;;5026998;28;20506;-64
2023/09/26 08:44:12;;;;;;;5.23;2.83;;;;;;;;;;5025626;28;20473;-65
2023/09/26 08:46:41;;;;;;;4.53;3.10;;;;;;;;;;5035633;28;20463;-64
2023/09/26 08:49:10;;;;;;;10.10;3.10;;;;;;;;;;5019476;28;20444;-64
2023/09/26 08:51:38;;;;;;;5.20;3.30;;;;;;;;;;5044241;28;20513;-64
2023/09/26 08:54:06;;;;;;;4.20;2.67;;;;;;;;;;5019590;28;20448;-64
2023/09/26 08:56:33;;;;;;;5.17;2.90;;;;;;;;;;5024841;28;20459;-64
2023/09/26 08:59:03;;;;;;;4.57;3.07;;;;;;;;;;5029004;28;20814;-64
2023/09/26 09:01:30;;;;;;;6.00;3.60;;;;;;;;;;5042760;28;20450;-64
2023/09/26 09:03:58;;;;;;;4.83;3.00;;;;;;;;;;5029545;28;20875;-64
2023/09/26 09:06:25;;;;;;;4.00;3.57;;;;;;;;;;5023393;28;20466;-64
2023/09/26 09:09:07;;;;;;;6.77;3.50;;;;;;;;;;5025356;28;20534;-64
2023/09/26 09:11:34;;;;;;;4.97;3.70;;;;;;;;;;5040396;28;20441;-64
2023/09/26 09:14:01;;;;;;;7.00;3.00;;;;;;;;;;5019180;28;20453;-65
2023/09/26 09:16:28;;;;;;;6.83;3.10;;;;;;;;;;5020621;28;20791;-65
2023/09/26 09:18:58;;;;;;;5.37;3.70;;;;;;;;;;5025708;28;20491;-64
2023/09/26 09:21:27;;;;;;;6.80;3.37;;;;;;;;;;5031384;28;20495;-64
2023/09/26 09:23:56;;;;;;;6.43;3.00;;;;;;;;;;5027771;28;20706;-64
2023/09/26 09:26:24;;;;;;;4.77;2.80;;;;;;;;;;5023687;28;20806;-65
2023/09/26 09:28:52;;;;;;;4.60;2.83;;;;;;;;;;5019087;28;20450;-64
2023/09/26 09:31:19;;;;;;;5.53;3.80;;;;;;;;;;5036728;28;20439;-65
2023/09/26 09:33:47;;;;;;;4.00;2.63;;;;;;;;;;5026264;28;20809;-64
2023/09/26 09:36:14;;;;;;;4.03;2.93;;;;;;;;;;5033055;28;20479;-65
2023/09/26 09:38:41;;;;;;;5.47;2.27;;;;;;;;;;5019167;28;20566;-64
2023/09/26 09:41:10;;;;;;;3.73;2.50;;;;;;;;;;5032582;28;20494;-65
2023/09/26 09:43:37;;;;;;;4.73;2.73;;;;;;;;;;5019993;28;20853;-64
2023/09/26 09:46:07;;;;;;;5.77;3.17;;;;;;;;;;5035960;28;21030;-64
2023/09/26 09:48:39;;;;;;;5.17;2.73;;;;;;;;;;5019577;28;20522;-64
2023/09/26 09:51:09;;;;;;;7.53;2.53;;;;;;;;;;5036878;28;20452;-65
2023/09/26 09:53:36;;;;;;;3.37;2.30;;;;;;;;;;5038531;28;20439;-65
2023/09/26 09:56:06;;;;;;;3.80;2.40;;;;;;;;;;5018216;28;20525;-65
2023/09/26 09:58:37;;;;;;;4.50;3.20;;;;;;;;;;5031318;28;20485;-64
2023/09/26 10:01:05;;;;;;;4.60;2.80;;;;;;;;;;5035300;28;20458;-64
2023/09/26 10:03:33;;;;;;;9.20;4.53;;;;;;;;;;5040332;28;20439;-65
2023/09/26 10:06:02;;;;;;;4.10;2.20;;;;;;;;;;5036508;28;20463;-65
2023/09/26 10:08:30;;;;;;;5.07;3.40;;;;;;;;;;5025795;28;20462;-65
2023/09/26 10:10:57;;;;;;;4.23;2.30;;;;;;;;;;5044369;28;20775;-65
2023/09/26 10:13:24;;;;;;;4.40;2.00;;;;;;;;;;5038212;28;20439;-65
2023/09/26 10:16:07;;;;;;;5.67;2.77;;;;;;;;;;5017926;28;20466;-65
2023/09/26 10:18:35;;;;;;;4.03;2.50;;;;;;;;;;5025329;28;20494;-64
2023/09/26 10:21:02;;;;;;;7.83;2.13;;;;;;;;;;5036346;28;20924;-65
2023/09/26 10:23:29;;;;;;;3.03;2.10;;;;;;;;;;5017732;28;20506;-65
2023/09/26 10:25:56;;;;;;;3.87;2.40;;;;;;;;;;5039480;28;20817;-65
2023/09/26 10:28:23;;;;;;;3.33;2.13;;;;;;;;;;5032319;28;20443;-65
2023/09/26 10:30:55;;;;;;;6.27;3.73;;;;;;;;;;5026870;28;20435;-65
2023/09/26 10:33:23;;;;;;;4.60;2.80;;;;;;;;;;5018324;28;20443;-65
2023/09/26 10:35:50;;;;;;;2.60;1.70;;;;;;;;;;5029836;28;20482;-65
2023/09/26 10:38:19;;;;;;;3.33;2.00;;;;;;;;;;5030043;28;20486;-64
2023/09/26 10:40:46;;;;;;;3.63;2.00;;;;;;;;;;5044678;28;20442;-65
2023/09/26 10:43:14;;;;;;;3.07;2.30;;;;;;;;;;5037215;28;20558;-65
2023/09/26 10:45:44;;;;;;;8.47;3.10;;;;;;;;;;5043418;28;20466;-65
2023/09/26 10:48:11;;;;;;;3.53;2.23;;;;;;;;;;5021133;28;20505;-65
2023/09/26 10:50:42;;;;;;;2.90;1.90;;;;;;;;;;5034017;28;20458;-64
2023/09/26 10:53:09;;;;;;;3.87;2.07;;;;;;;;;;5023586;28;20439;-65
2023/09/26 10:55:36;;;;;;;2.60;2.10;;;;;;;;;;5040913;28;20482;-65
2023/09/26 10:58:04;;;;;;;4.10;2.30;;;;;;;;;;5021961;28;20545;-65
2023/09/26 11:00:31;;;;;;;10.10;3.60;;;;;;;;;;5034420;28;20469;-65
2023/09/26 11:02:59;;;;;;;21.07;10.90;;;;;;;;;;5027757;28;20502;-64
2023/09/26 11:05:30;;;;;;;3.07;2.00;;;;;;;;;;5035852;28;20856;-65
2023/09/26 11:07:58;;;;;;;3.00;1.70;;;;;;;;;;5022143;28;20545;-65
2023/09/26 11:10:25;;;;;;;4.63;1.70;;;;;;;;;;5029363;28;20756;-64
2023/09/26 11:12:52;;;;;;;2.50;1.80;;;;;;;;;;5026089;28;20443;-66
2023/09/26 11:15:19;;;;;;;4.20;2.13;;;;;;;;;;5035091;28;20467;-66
2023/09/26 11:17:49;;;;;;;2.63;1.50;;;;;;;;;;5023822;28;20845;-65
2023/09/26 11:20:16;;;;;;;3.13;2.40;;;;;;;;;;5024243;28;20435;-65
2023/09/26 11:22:47;;;;;;;3.43;2.03;;;;;;;;;;5025226;28;20451;-65
2023/09/26 11:25:16;;;;;;;3.50;1.77;;;;;;;;;;5030386;28;20468;-66
2023/09/26 11:27:44;;;;;;;2.50;1.17;;;;;;;;;;5025187;28;20999;-64
2023/09/26 11:30:14;;;;;;;1.77;1.33;;;;;;;;;;5024916;28;20474;-65
2023/09/26 11:32:41;;;;;;;2.17;1.17;;;;;;;;;;5042334;28;20522;-65
2023/09/26 11:35:09;;;;;;;2.07;1.37;;;;;;;;;;5036348;28;20544;-66
2023/09/26 11:37:38;;;;;;;1.87;1.13;;;;;;;;;;5019679;28;20464;-64
2023/09/26 11:40:11;;;;;;;1.67;1.13;;;;;;;;;;5036161;28;20501;-65
2023/09/26 11:42:43;;;;;;;1.70;1.00;;;;;;;;;;5040341;28;20439;-64
2023/09/26 11:45:20;;;;;;;1.40;0.90;;;;;;;;;;5045680;28;20454;-64
2023/09/26 11:47:47;;;;;;;2.33;1.00;;;;;;;;;;5026755;28;20912;-64
2023/09/26 11:50:14;;;;;;;1.80;1.03;;;;;;;;;;5021190;28;20464;-64
2023/09/26 11:52:42;;;;;;;2.70;1.40;;;;;;;;;;5020819;28;20448;-64
2023/09/26 11:55:09;;;;;;;1.80;1.10;;;;;;;;;;5041116;28;20463;-64
2023/09/26 11:57:37;;;;;;;1.60;0.90;;;;;;;;;;5020360;28;20454;-64
2023/09/26 12:00:11;;;;;;;2.00;1.20;;;;;;;;;;5031512;28;20445;-64
2023/09/26 12:02:42;;;;;;;2.17;1.27;;;;;;;;;;5031650;28;20435;-64
2023/09/26 12:05:10;;;;;;;2.00;1.10;;;;;;;;;;5035641;28;20459;-64
2023/09/26 12:07:37;;;;;;;2.83;1.40;;;;;;;;;;5027167;28;20460;-64
2023/09/26 12:10:05;;;;;;;3.13;1.47;;;;;;;;;;5024891;28;20448;-64
2023/09/26 12:12:32;;;;;;;1.80;1.30;;;;;;;;;;5047403;28;20462;-65
2023/09/26 12:15:14;;;;;;;1.83;1.13;;;;;;;;;;5020742;28;20467;-64
2023/09/26 12:17:42;;;;;;;1.90;1.27;;;;;;;;;;5021537;28;20463;-65
2023/09/26 12:20:10;;;;;;;2.33;1.40;;;;;;;;;;5037794;28;20494;-64
2023/09/26 12:22:38;;;;;;;1.60;0.90;;;;;;;;;;5024872;28;20950;-64
2023/09/26 12:25:05;;;;;;;3.50;1.00;;;;;;;;;;5025946;28;20466;-64
2023/09/26 12:27:33;;;;;;;2.20;1.60;;;;;;;;;;5022095;28;20501;-64
2023/09/26 12:30:00;;;;;;;1.90;1.20;;;;;;;;;;5031100;28;20509;-65
2023/09/26 12:32:27;;;;;;;2.60;1.43;;;;;;;;;;5023438;28;20440;-64
2023/09/26 12:34:56;;;;;;;1.70;1.20;;;;;;;;;;5014629;28;20478;-64
2023/09/26 12:37:23;;;;;;;5.63;1.67;;;;;;;;;;5022578;28;20655;-65
2023/09/26 12:39:50;;;;;;;1.60;1.07;;;;;;;;;;5026323;28;20483;-64
2023/09/26 12:42:17;;;;;;;1.83;1.10;;;;;;;;;;5050015;28;20537;-64
2023/09/26 12:44:44;;;;;;;3.30;1.20;;;;;;;;;;5031528;28;20472;-65
2023/09/26 12:47:11;;;;;;;2.10;1.10;;;;;;;;;;5023404;28;20463;-65
2023/09/26 12:49:38;;;;;;;1.87;1.20;;;;;;;;;;5018174;28;20926;-64
2023/09/26 12:52:06;;;;;;;2.33;1.03;;;;;;;;;;5021740;28;20464;-65
2023/09/26 12:54:34;;;;;;;3.13;1.50;;;;;;;;;;5025475;28;20476;-64
2023/09/26 12:57:01;;;;;;;1.90;1.20;;;;;;;;;;5023711;28;20952;-65
2023/09/26 12:59:28;;;;;;;1.90;1.30;;;;;;;;;;5027765;28;20483;-65
2023/09/26 13:01:55;;;;;;;1.80;1.07;;;;;;;;;;5033815;28;20498;-65
2023/09/26 13:04:22;;;;;;;1.93;1.20;;;;;;;;;;5019087;28;20803;-65
2023/09/26 13:06:49;;;;;;;1.83;1.20;;;;;;;;;;5030507;28;20458;-66
2023/09/26 13:09:18;;;;;;;2.20;1.53;;;;;;;;;;5025950;28;20452;-64
2023/09/26 13:11:45;;;;;;;2.30;1.33;;;;;;;;;;5047200;28;20439;-64
2023/09/26 13:14:12;;;;;;;3.00;1.20;;;;;;;;;;5026483;28;20464;-65
2023/09/26 13:16:39;;;;;;;2.30;1.10;;;;;;;;;;5025507;28;20439;-64
2023/09/26 13:19:06;;;;;;;1.87;1.20;;;;;;;;;;5019241;28;20490;-65
2023/09/26 13:21:33;;;;;;;3.17;2.17;;;;;;;;;;5043920;28;20462;-65
2023/09/26 13:24:00;;;;;;;1.80;1.10;;;;;;;;;;5025644;28;20448;-65
2023/09/26 13:26:29;;;;;;;2.20;1.30;;;;;;;;;;5025546;28;20458;-65
2023/09/26 13:28:56;;;;;;;4.20;1.30;;;;;;;;;;5025695;28;20826;-65
2023/09/26 13:31:23;;;;;;;1.60;1.10;;;;;;;;;;5039284;28;20464;-65
2023/09/26 13:33:50;;;;;;;2.80;1.33;;;;;;;;;;5031277;28;20459;-65
2023/09/26 13:36:17;;;;;;;1.60;1.07;;;;;;;;;;5029558;28;20468;-65
2023/09/26 13:38:44;;;;;;;1.90;1.20;;;;;;;;;;5019920;28;20490;-66
2023/09/26 13:41:11;;;;;;;2.83;1.40;;;;;;;;;;5035937;28;20951;-65
2023/09/26 13:43:40;;;;;;;2.10;1.17;;;;;;;;;;5031041;28;20455;-65
2023/09/26 13:46:07;;;;;;;1.80;1.13;;;;;;;;;;5030540;28;20554;-65
2023/09/26 13:48:34;;;;;;;2.00;1.23;;;;;;;;;;5011535;28;20480;-65
2023/09/26 13:51:05;;;;;;;1.80;1.00;;;;;;;;;;5032507;28;20461;-65
2023/09/26 13:53:32;;;;;;;1.40;0.80;;;;;;;;;;5022836;28;20795;-65
2023/09/26 13:55:59;;;;;;;2.13;1.30;;;;;;;;;;5024772;28;20926;-65
2023/09/26 13:58:26;;;;;;;4.23;1.27;;;;;;;;;;5021194;28;20446;-65
2023/09/26 14:00:55;;;;;;;5.07;3.60;;;;;;;;;;5033999;28;20466;-65
2023/09/26 14:03:22;;;;;;;2.27;1.30;;;;;;;;;;5022278;28;20566;-65
2023/09/26 14:05:49;;;;;;;1.97;1.30;;;;;;;;;;5023930;28;20505;-64
2023/09/26 14:08:17;;;;;;;3.60;1.20;;;;;;;;;;5022751;28;20818;-64
2023/09/26 14:10:44;;;;;;;2.07;0.93;;;;;;;;;;5037764;28;20461;-65
2023/09/26 14:13:11;;;;;;;1.90;1.07;;;;;;;;;;5037638;28;20839;-65
2023/09/26 14:15:38;;;;;;;2.10;1.17;;;;;;;;;;5028354;28;20474;-65
2023/09/26 14:18:07;;;;;;;2.90;1.40;;;;;;;;;;5020335;28;20547;-65
2023/09/26 14:20:34;;;;;;;2.23;1.23;;;;;;;;;;5029182;28;21307;-65
2023/09/26 14:23:01;;;;;;;1.70;1.20;;;;;;;;;;5019021;28;20444;-65
2023/09/26 14:25:28;;;;;;;2.90;1.70;;;;;;;;;;5024219;28;20837;-64
2023/09/26 14:27:59;;;;;;;5.93;1.57;;;;;;;;;;5024395;28;20451;-64
2023/09/26 14:30:26;;;;;;;1.70;1.00;;;;;;;;;;5021373;28;20459;-64
2023/09/26 14:32:53;;;;;;;2.07;1.27;;;;;;;;;;5024808;28;20922;-64
2023/09/26 14:35:22;;;;;;;1.70;1.20;;;;;;;;;;5043812;28;20469;-65
2023/09/26 14:37:49;;;;;;;2.00;1.30;;;;;;;;;;5028183;28;20459;-65
2023/09/26 14:40:18;;;;;;;2.13;1.30;;;;;;;;;;5032135;28;20482;-65
2023/09/26 14:42:45;;;;;;;3.10;1.37;;;;;;;;;;5037451;28;20545;-65
2023/09/26 14:45:13;;;;;;;2.83;1.30;;;;;;;;;;5024281;28;20482;-65
